createdAt,value
2017-12-16T00:00:24.687Z,66.62
2017-12-16T00:05:40.186Z,68.25
2017-12-16T00:08:10.644Z,67.84
2017-12-16T00:10:39.666Z,67.53
2017-12-16T00:13:07.237Z,67.05
2017-12-16T00:15:35.662Z,67.48
2017-12-16T00:18:03.207Z,68.42
2017-12-16T00:20:30.714Z,68.76
2017-12-16T00:22:58.271Z,69.17
2017-12-16T00:25:25.822Z,69.00
2017-12-16T00:27:53.343Z,69.25
2017-12-16T00:30:21.102Z,69.11
2017-12-16T00:32:48.661Z,68.28
2017-12-16T00:35:16.918Z,68.46
2017-12-16T00:37:44.717Z,68.24
2017-12-16T00:40:12.261Z,68.72
2017-12-16T00:42:39.821Z,69.33
2017-12-16T00:45:08.606Z,68.33
2017-12-16T00:47:36.167Z,67.89
2017-12-16T00:50:03.679Z,68.37
2017-12-16T00:52:31.362Z,68.57
2017-12-16T00:54:58.872Z,68.34
2017-12-16T00:57:26.403Z,68.62
2017-12-16T00:59:54.373Z,68.19
2017-12-16T01:02:21.922Z,68.65
2017-12-16T01:04:49.431Z,68.50
2017-12-16T01:07:17.253Z,68.62
2017-12-16T01:09:44.762Z,68.09
2017-12-16T01:12:12.270Z,68.03
2017-12-16T01:14:39.935Z,69.35
2017-12-16T01:17:07.442Z,69.35
2017-12-16T01:19:34.958Z,69.72
2017-12-16T01:22:02.713Z,69.17
2017-12-16T01:24:30.219Z,69.17
2017-12-16T01:26:57.723Z,68.99
2017-12-16T01:29:25.286Z,68.01
2017-12-16T01:31:52.790Z,68.71
2017-12-16T01:34:32.056Z,68.03
2017-12-16T01:37:11.570Z,68.77
2017-12-16T01:39:39.126Z,69.00
2017-12-16T01:42:06.634Z,68.45
2017-12-16T01:44:34.138Z,68.83
2017-12-16T01:47:01.975Z,67.59
2017-12-16T01:49:29.516Z,67.13
2017-12-16T01:51:57.030Z,67.37
2017-12-16T01:54:24.839Z,67.88
2017-12-16T01:56:52.399Z,67.76
2017-12-16T01:59:19.914Z,68.62
2017-12-16T02:01:47.720Z,67.99
2017-12-16T02:04:15.347Z,67.24
2017-12-16T02:06:43.018Z,67.89
2017-12-16T02:09:10.994Z,67.35
2017-12-16T02:11:38.501Z,67.89
2017-12-16T02:14:06.006Z,68.29
2017-12-16T02:16:33.791Z,68.64
2017-12-16T02:19:01.303Z,68.09
2017-12-16T02:21:28.814Z,68.30
2017-12-16T02:23:56.386Z,66.97
2017-12-16T02:26:23.928Z,67.84
2017-12-16T02:28:51.497Z,67.13
2017-12-16T02:31:19.054Z,66.74
2017-12-16T02:33:46.565Z,66.15
2017-12-16T02:36:14.079Z,66.06
2017-12-16T02:38:41.927Z,67.01
2017-12-16T02:41:09.503Z,67.28
2017-12-16T02:43:37.967Z,67.44
2017-12-16T02:46:05.832Z,66.42
2017-12-16T02:48:33.339Z,66.80
2017-12-16T02:51:00.857Z,66.11
2017-12-16T02:53:28.414Z,66.48
2017-12-16T02:55:55.967Z,66.46
2017-12-16T02:58:23.827Z,66.82
2017-12-16T03:00:51.571Z,66.17
2017-12-16T03:03:19.073Z,66.73
2017-12-16T03:05:46.606Z,66.43
2017-12-16T03:08:14.151Z,66.82
2017-12-16T03:10:41.664Z,66.23
2017-12-16T03:13:09.174Z,65.64
2017-12-16T03:15:36.858Z,66.35
2017-12-16T03:18:04.411Z,66.09
2017-12-16T03:20:31.967Z,66.08
2017-12-16T03:22:59.706Z,65.77
2017-12-16T03:25:27.218Z,68.00
2017-12-16T03:27:54.727Z,66.41
2017-12-16T03:30:22.487Z,65.97
2017-12-16T03:32:50.002Z,66.38
2017-12-16T03:35:17.529Z,66.44
2017-12-16T03:37:45.085Z,65.81
2017-12-16T03:40:12.749Z,65.48
2017-12-16T03:42:40.253Z,65.41
2017-12-16T03:45:07.971Z,65.47
2017-12-16T03:47:35.475Z,65.44
2017-12-16T03:50:02.983Z,65.47
2017-12-16T03:52:30.542Z,65.64
2017-12-16T03:54:58.046Z,65.44
2017-12-16T03:57:25.558Z,64.94
2017-12-16T03:59:53.297Z,64.96
2017-12-16T04:02:20.817Z,65.08
2017-12-16T04:04:48.426Z,65.54
2017-12-16T04:07:16.265Z,66.23
2017-12-16T04:09:43.777Z,66.35
2017-12-16T04:12:11.281Z,66.51
2017-12-16T04:14:39.404Z,67.72
2017-12-16T04:17:06.954Z,66.18
2017-12-16T04:19:34.462Z,65.32
2017-12-16T04:22:02.890Z,65.79
2017-12-16T04:24:30.394Z,65.46
2017-12-16T04:26:57.922Z,65.36
2017-12-16T04:29:26.079Z,65.41
2017-12-16T04:31:54.048Z,65.15
2017-12-16T04:34:22.017Z,65.47
2017-12-16T04:36:49.754Z,65.01
2017-12-16T04:39:17.271Z,66.20
2017-12-16T04:41:44.785Z,65.59
2017-12-16T04:44:12.868Z,65.28
2017-12-16T04:46:40.407Z,65.40
2017-12-16T04:49:07.913Z,65.41
2017-12-16T04:51:35.647Z,65.11
2017-12-16T04:54:03.208Z,65.00
2017-12-16T04:56:30.717Z,64.99
2017-12-16T04:58:58.263Z,65.03
2017-12-16T05:01:25.771Z,65.00
2017-12-16T05:03:53.275Z,65.17
2017-12-16T05:06:20.822Z,65.25
2017-12-16T05:08:48.351Z,65.07
2017-12-16T05:11:15.857Z,65.28
2017-12-16T05:13:43.679Z,65.08
2017-12-16T05:16:11.238Z,65.62
2017-12-16T05:18:38.754Z,65.77
2017-12-16T05:21:06.742Z,65.54
2017-12-16T05:23:34.258Z,65.38
2017-12-16T05:26:01.761Z,66.01
2017-12-16T05:28:29.545Z,65.59
2017-12-16T05:30:57.056Z,65.33
2017-12-16T05:33:24.606Z,65.20
2017-12-16T05:35:52.401Z,65.30
2017-12-16T05:38:19.962Z,65.23
2017-12-16T05:40:47.473Z,65.49
2017-12-16T05:43:15.296Z,65.34
2017-12-16T05:45:43.428Z,65.30
2017-12-16T05:48:10.939Z,65.31
2017-12-16T05:50:38.723Z,65.68
2017-12-16T05:53:06.263Z,65.46
2017-12-16T05:55:33.770Z,65.66
2017-12-16T05:58:01.393Z,65.58
2017-12-16T06:00:29.350Z,65.90
2017-12-16T06:02:56.909Z,66.01
2017-12-16T06:05:25.492Z,65.57
2017-12-16T06:07:53.051Z,66.06
2017-12-16T06:10:20.558Z,65.87
2017-12-16T06:12:48.169Z,65.58
2017-12-16T06:15:15.728Z,65.72
2017-12-16T06:17:43.288Z,65.87
2017-12-16T06:20:11.063Z,65.64
2017-12-16T06:22:38.610Z,66.36
2017-12-16T06:25:06.170Z,66.17
2017-12-16T06:27:34.007Z,66.21
2017-12-16T06:30:01.521Z,66.68
2017-12-16T06:32:29.051Z,66.11
2017-12-16T06:34:56.637Z,66.30
2017-12-16T06:37:24.169Z,66.11
2017-12-16T06:39:51.727Z,66.18
2017-12-16T06:42:19.468Z,66.72
2017-12-16T06:44:48.370Z,66.69
2017-12-16T06:47:16.351Z,66.40
2017-12-16T06:49:43.940Z,66.16
2017-12-16T06:52:12.083Z,66.12
2017-12-16T06:54:39.643Z,65.89
2017-12-16T06:57:07.308Z,65.98
2017-12-16T06:59:34.852Z,66.00
2017-12-16T07:02:02.358Z,65.97
2017-12-16T07:04:30.084Z,65.78
2017-12-16T07:06:57.953Z,66.27
2017-12-16T07:09:25.926Z,66.05
2017-12-16T07:11:53.682Z,65.73
2017-12-16T07:14:21.193Z,65.77
2017-12-16T07:16:48.808Z,66.14
2017-12-16T07:19:16.566Z,65.90
2017-12-16T07:21:44.066Z,66.11
2017-12-16T07:24:11.580Z,66.15
2017-12-16T07:26:39.344Z,65.80
2017-12-16T07:29:06.848Z,66.36
2017-12-16T07:31:35.179Z,66.41
2017-12-16T07:34:02.738Z,66.51
2017-12-16T07:36:30.257Z,65.98
2017-12-16T07:38:57.765Z,66.37
2017-12-16T07:41:25.338Z,66.38
2017-12-16T07:43:52.913Z,66.34
2017-12-16T07:46:20.421Z,66.40
2017-12-16T07:48:48.195Z,66.46
2017-12-16T07:51:16.495Z,66.48
2017-12-16T07:53:44.001Z,66.43
2017-12-16T07:56:12.356Z,66.06
2017-12-16T07:58:39.856Z,66.31
2017-12-16T08:01:07.382Z,66.78
2017-12-16T08:03:35.290Z,66.62
2017-12-16T08:06:02.799Z,67.39
2017-12-16T08:08:30.477Z,67.36
2017-12-16T08:10:59.561Z,66.98
2017-12-16T08:13:28.105Z,66.84
2017-12-16T08:15:56.460Z,66.42
2017-12-16T08:18:27.409Z,66.98
2017-12-16T08:20:56.208Z,66.27
2017-12-16T08:23:23.751Z,66.12
2017-12-16T08:25:53.799Z,65.95
2017-12-16T08:28:22.248Z,65.73
2017-12-16T08:30:54.725Z,65.84
2017-12-16T08:33:22.287Z,66.04
2017-12-16T08:35:50.440Z,65.89
2017-12-16T08:38:18.212Z,65.34
2017-12-16T08:40:46.746Z,65.37
2017-12-16T08:43:14.935Z,65.07
2017-12-16T08:45:44.176Z,65.11
2017-12-16T08:48:12.552Z,65.30
2017-12-16T08:50:41.768Z,65.60
2017-12-16T08:53:09.587Z,65.40
2017-12-16T08:55:39.759Z,66.05
2017-12-16T08:58:08.215Z,65.18
2017-12-16T09:00:36.130Z,65.32
2017-12-16T09:03:03.656Z,65.31
2017-12-16T09:05:32.945Z,64.45
2017-12-16T09:08:02.448Z,65.22
2017-12-16T09:10:31.830Z,64.99
2017-12-16T09:12:59.950Z,65.10
2017-12-16T09:15:28.603Z,64.91
2017-12-16T09:17:56.958Z,64.76
2017-12-16T09:20:25.974Z,64.37
2017-12-16T09:22:53.659Z,64.43
2017-12-16T09:25:22.254Z,64.96
2017-12-16T09:27:49.874Z,64.50
2017-12-16T09:30:19.110Z,64.55
2017-12-16T09:32:47.376Z,64.72
2017-12-16T09:35:16.346Z,64.86
2017-12-16T09:37:43.909Z,64.74
2017-12-16T09:40:12.795Z,64.95
2017-12-16T09:42:40.311Z,64.73
2017-12-16T09:45:08.426Z,64.25
2017-12-16T09:47:36.083Z,64.58
2017-12-16T09:50:03.600Z,64.91
2017-12-16T09:52:31.723Z,65.42
2017-12-16T09:54:59.313Z,64.48
2017-12-16T09:57:26.846Z,64.04
2017-12-16T09:59:54.580Z,63.82
2017-12-16T10:02:22.102Z,64.13
2017-12-16T10:04:49.739Z,63.82
2017-12-16T10:07:17.398Z,63.48
2017-12-16T10:09:44.939Z,63.60
2017-12-16T10:12:13.113Z,64.08
2017-12-16T10:14:40.662Z,64.10
2017-12-16T10:17:08.231Z,63.48
2017-12-16T10:19:35.790Z,63.46
2017-12-16T10:22:03.384Z,63.18
2017-12-16T10:24:31.215Z,63.45
2017-12-16T10:26:59.082Z,63.42
2017-12-16T10:29:26.938Z,63.15
2017-12-16T10:31:56.133Z,62.90
2017-12-16T10:34:23.675Z,63.74
2017-12-16T10:36:51.254Z,63.40
2017-12-16T10:39:18.768Z,63.97
2017-12-16T10:41:48.297Z,63.28
2017-12-16T10:44:16.553Z,63.70
2017-12-16T10:46:45.186Z,64.57
2017-12-16T10:49:13.067Z,63.95
2017-12-16T10:51:41.645Z,64.02
2017-12-16T10:54:09.399Z,63.33
2017-12-16T10:56:37.674Z,63.27
2017-12-16T10:59:06.802Z,62.81
2017-12-16T11:01:34.632Z,62.90
2017-12-16T11:04:02.156Z,63.00
2017-12-16T11:06:30.078Z,62.27
2017-12-16T11:08:58.383Z,62.04
2017-12-16T11:11:25.920Z,62.05
2017-12-16T11:13:53.530Z,61.19
2017-12-16T11:16:21.214Z,61.35
2017-12-16T11:18:49.089Z,60.38
2017-12-16T11:21:17.056Z,60.39
2017-12-16T11:23:46.691Z,60.89
2017-12-16T11:26:14.433Z,59.84
2017-12-16T11:28:42.804Z,59.39
2017-12-16T11:31:10.475Z,58.79
2017-12-16T11:33:38.128Z,59.70
2017-12-16T11:36:06.404Z,59.37
2017-12-16T11:38:34.072Z,59.03
2017-12-16T11:41:01.831Z,58.92
2017-12-16T11:43:29.593Z,58.72
2017-12-16T11:45:57.372Z,58.75
2017-12-16T11:48:25.022Z,57.59
2017-12-16T11:50:53.690Z,57.94
2017-12-16T11:53:21.477Z,58.06
2017-12-16T11:55:49.232Z,57.79
2017-12-16T11:58:16.999Z,57.59
2017-12-16T12:00:44.760Z,57.29
2017-12-16T12:03:12.535Z,58.05
2017-12-16T12:05:40.390Z,57.64
2017-12-16T12:08:08.003Z,57.43
2017-12-16T12:10:35.714Z,57.48
2017-12-16T12:13:03.637Z,56.27
2017-12-16T12:15:31.162Z,56.26
2017-12-16T12:17:58.697Z,55.26
2017-12-16T12:20:26.313Z,54.51
2017-12-16T12:22:53.903Z,54.41
2017-12-16T12:25:21.580Z,54.61
2017-12-16T12:27:49.260Z,53.57
2017-12-16T12:30:17.008Z,53.95
2017-12-16T12:32:44.583Z,53.89
2017-12-16T12:35:12.227Z,53.93
2017-12-16T12:37:40.399Z,52.60
2017-12-16T12:40:08.068Z,52.22
2017-12-16T12:42:35.656Z,52.39
2017-12-16T12:45:03.384Z,51.90
2017-12-16T12:47:30.964Z,53.46
2017-12-16T12:49:58.912Z,53.76
2017-12-16T12:52:26.570Z,54.14
2017-12-16T12:54:54.166Z,54.71
2017-12-16T12:57:21.760Z,55.55
2017-12-16T12:59:49.559Z,54.81
2017-12-16T13:02:19.065Z,53.43
2017-12-16T13:04:46.715Z,53.85
2017-12-16T13:07:14.230Z,52.64
2017-12-16T13:09:41.753Z,52.95
2017-12-16T13:12:09.371Z,53.46
2017-12-16T13:14:36.894Z,53.92
2017-12-16T13:17:04.443Z,54.98
2017-12-16T13:19:31.991Z,54.67
2017-12-16T13:21:59.587Z,53.99
2017-12-16T13:24:27.182Z,53.57
2017-12-16T13:26:54.957Z,53.53
2017-12-16T13:29:22.475Z,53.53
2017-12-16T13:31:50.086Z,53.69
2017-12-16T13:34:18.478Z,53.67
2017-12-16T13:36:46.034Z,54.25
2017-12-16T13:39:13.674Z,55.04
2017-12-16T13:41:41.442Z,55.98
2017-12-16T13:44:08.950Z,55.05
2017-12-16T13:46:36.462Z,54.18
2017-12-16T13:49:04.346Z,53.98
2017-12-16T13:51:32.199Z,54.98
2017-12-16T13:53:59.741Z,54.87
2017-12-16T13:56:27.437Z,55.88
2017-12-16T13:58:55.175Z,56.21
2017-12-16T14:01:22.737Z,56.77
2017-12-16T14:03:50.396Z,56.98
2017-12-16T14:06:17.913Z,57.22
2017-12-16T14:08:45.425Z,56.72
2017-12-16T14:11:13.549Z,57.45
2017-12-16T14:13:41.066Z,57.73
2017-12-16T14:16:08.657Z,57.76
2017-12-16T14:18:36.363Z,57.89
2017-12-16T14:21:03.878Z,58.76
2017-12-16T14:23:31.385Z,59.27
2017-12-16T14:25:59.147Z,59.76
2017-12-16T14:28:26.744Z,59.56
2017-12-16T14:30:54.569Z,60.18
2017-12-16T14:33:22.539Z,59.95
2017-12-16T14:35:50.200Z,60.48
2017-12-16T14:38:17.910Z,61.59
2017-12-16T14:40:45.458Z,61.86
2017-12-16T14:43:12.996Z,61.55
2017-12-16T14:45:40.530Z,62.42
2017-12-16T14:48:08.302Z,62.32
2017-12-16T14:50:35.860Z,62.26
2017-12-16T14:53:03.370Z,62.40
2017-12-16T14:55:31.388Z,62.85
2017-12-16T14:57:58.948Z,62.38
2017-12-16T15:00:26.458Z,63.63
2017-12-16T15:02:54.270Z,64.68
2017-12-16T15:05:21.935Z,64.92
2017-12-16T15:07:49.593Z,65.43
2017-12-16T15:10:17.158Z,64.91
2017-12-16T15:12:44.757Z,65.47
2017-12-16T15:15:12.295Z,65.47
2017-12-16T15:17:39.884Z,64.73
2017-12-16T15:20:07.594Z,64.73
2017-12-16T15:22:35.270Z,65.12
2017-12-16T15:25:03.123Z,64.23
2017-12-16T15:27:30.782Z,64.52
2017-12-16T15:29:58.350Z,64.53
2017-12-16T15:32:25.894Z,65.18
2017-12-16T15:34:53.563Z,65.37
2017-12-16T15:37:21.140Z,66.06
2017-12-16T15:39:48.885Z,66.13
2017-12-16T15:42:17.371Z,65.50
2017-12-16T15:44:47.808Z,66.21
2017-12-16T15:47:15.658Z,66.26
2017-12-16T15:49:43.406Z,66.69
2017-12-16T15:52:12.108Z,66.38
2017-12-16T15:54:39.856Z,66.16
2017-12-16T15:57:07.596Z,66.24
2017-12-16T15:59:35.236Z,65.72
2017-12-16T16:02:02.906Z,65.70
2017-12-16T16:04:30.439Z,65.68
2017-12-16T16:06:58.077Z,65.81
2017-12-16T16:09:25.739Z,65.90
2017-12-16T16:11:53.502Z,65.14
2017-12-16T16:14:21.118Z,64.67
2017-12-16T16:16:50.003Z,65.04
2017-12-16T16:19:17.721Z,64.74
2017-12-16T16:21:45.781Z,64.57
2017-12-16T16:24:13.632Z,64.76
2017-12-16T16:26:41.315Z,64.37
2017-12-16T16:29:09.067Z,64.69
2017-12-16T16:31:36.673Z,65.20
2017-12-16T16:34:04.967Z,64.95
2017-12-16T16:36:33.293Z,65.55
2017-12-16T16:39:01.775Z,65.76
2017-12-16T16:41:29.564Z,66.64
2017-12-16T16:43:57.300Z,66.16
2017-12-16T16:46:26.185Z,65.93
2017-12-16T16:51:21.784Z,66.81
2017-12-16T16:53:49.403Z,66.97
2017-12-16T16:56:17.077Z,65.93
2017-12-16T16:58:45.112Z,65.88
2017-12-16T17:01:14.338Z,66.64
2017-12-16T17:03:42.026Z,66.32
2017-12-16T17:06:10.056Z,66.37
2017-12-16T17:08:38.817Z,66.91
2017-12-16T17:11:07.518Z,66.37
2017-12-16T17:13:36.626Z,66.38
2017-12-16T17:16:05.917Z,66.65
2017-12-16T17:18:33.748Z,66.49
2017-12-16T17:21:02.262Z,66.22
2017-12-16T17:23:30.332Z,65.98
2017-12-16T17:25:58.913Z,65.71
2017-12-16T17:28:26.984Z,66.44
2017-12-16T17:30:54.889Z,66.58
2017-12-16T17:33:23.947Z,66.51
2017-12-16T17:35:51.713Z,66.57
2017-12-16T17:40:47.237Z,66.43
2017-12-16T17:43:14.811Z,66.15
2017-12-16T17:45:44.765Z,65.46
2017-12-16T17:48:13.460Z,65.64
2017-12-16T17:50:41.218Z,66.02
2017-12-16T17:53:09.322Z,66.18
2017-12-16T17:55:36.841Z,65.90
2017-12-16T17:58:04.555Z,66.31
2017-12-16T18:00:33.021Z,66.32
2017-12-16T18:03:00.595Z,66.71
2017-12-16T18:05:28.464Z,66.46
2017-12-16T18:07:56.235Z,66.71
2017-12-16T18:10:23.851Z,67.14
2017-12-16T18:12:52.076Z,66.86
2017-12-16T18:15:19.926Z,66.27
2017-12-16T18:17:47.559Z,66.32
2017-12-16T18:20:15.235Z,67.03
2017-12-16T18:22:43.054Z,67.13
2017-12-16T18:25:10.584Z,67.05
2017-12-16T18:27:38.290Z,67.39
2017-12-16T18:30:06.801Z,67.43
2017-12-16T18:32:34.828Z,67.31
2017-12-16T18:35:02.548Z,66.94
2017-12-16T18:37:30.725Z,68.06
2017-12-16T18:39:58.492Z,67.44
2017-12-16T18:42:26.086Z,67.39
2017-12-16T18:44:53.809Z,67.52
2017-12-16T18:47:21.578Z,67.38
2017-12-16T18:49:49.338Z,67.36
2017-12-16T18:52:17.105Z,66.91
2017-12-16T18:54:44.677Z,67.19
2017-12-16T18:57:12.258Z,67.28
2017-12-16T18:59:40.200Z,67.15
2017-12-16T19:02:07.822Z,67.29
2017-12-16T19:04:36.432Z,67.67
2017-12-16T19:07:04.373Z,67.62
2017-12-16T19:09:33.943Z,67.26
2017-12-16T19:12:02.415Z,66.78
2017-12-16T19:14:33.327Z,67.09
2017-12-16T19:17:00.914Z,66.48
2017-12-16T19:19:28.552Z,66.62
2017-12-16T19:21:56.521Z,65.49
2017-12-16T19:24:24.077Z,65.75
2017-12-16T19:26:51.824Z,66.45
2017-12-16T19:29:19.446Z,65.32
2017-12-16T19:31:47.180Z,65.14
2017-12-16T19:34:15.028Z,65.53
2017-12-16T19:36:42.997Z,65.28
2017-12-16T19:39:10.565Z,65.29
2017-12-16T19:41:39.077Z,65.72
2017-12-16T19:44:07.415Z,65.23
2017-12-16T19:46:35.588Z,66.05
2017-12-16T19:49:03.454Z,66.03
2017-12-16T19:51:31.475Z,66.73
2017-12-16T19:53:59.083Z,65.98
2017-12-16T19:56:27.565Z,65.71
2017-12-16T19:58:55.554Z,66.04
2017-12-16T20:01:23.262Z,65.68
2017-12-16T20:03:50.910Z,66.13
2017-12-16T20:06:19.027Z,65.64
2017-12-16T20:08:46.692Z,65.70
2017-12-16T20:11:14.577Z,65.41
2017-12-16T20:13:42.527Z,65.45
2017-12-16T20:16:10.290Z,66.12
2017-12-16T20:18:38.057Z,66.09
2017-12-16T20:21:05.924Z,65.68
2017-12-16T20:23:33.703Z,65.50
2017-12-16T20:26:01.448Z,65.90
2017-12-16T20:28:29.622Z,65.90
2017-12-16T20:30:57.488Z,66.60
2017-12-16T20:33:25.341Z,66.24
2017-12-16T20:35:54.245Z,66.29
2017-12-16T20:38:22.009Z,66.40
2017-12-16T20:40:49.772Z,66.59
2017-12-16T20:43:17.758Z,66.63
2017-12-16T20:45:45.629Z,67.30
2017-12-16T20:48:13.681Z,68.25
2017-12-16T20:50:41.722Z,68.36
2017-12-16T20:53:10.144Z,68.10
2017-12-16T20:55:37.905Z,67.70
2017-12-16T20:58:05.821Z,67.57
2017-12-16T21:00:33.776Z,67.74
2017-12-16T21:03:01.707Z,67.58
2017-12-16T21:05:29.562Z,67.18
2017-12-16T21:07:57.224Z,67.24
2017-12-16T21:10:24.783Z,67.51
2017-12-16T21:12:52.753Z,67.82
2017-12-16T21:15:21.540Z,67.48
2017-12-16T21:17:49.147Z,66.86
2017-12-16T21:20:16.965Z,67.17
2017-12-16T21:22:44.626Z,67.41
2017-12-16T21:25:12.227Z,67.55
2017-12-16T21:27:40.052Z,68.43
2017-12-16T21:30:07.609Z,68.00
2017-12-16T21:32:35.375Z,67.44
2017-12-16T21:35:03.338Z,67.42
2017-12-16T21:37:32.029Z,67.22
2017-12-16T21:39:59.805Z,67.49
2017-12-16T21:42:27.868Z,67.17
2017-12-16T21:44:55.525Z,67.17
2017-12-16T21:47:23.188Z,67.68
2017-12-16T21:49:51.257Z,66.93
2017-12-16T21:52:18.849Z,66.47
2017-12-16T21:54:46.581Z,66.69
2017-12-16T21:57:14.203Z,66.78
2017-12-16T21:59:42.621Z,66.42
2017-12-16T22:02:10.589Z,66.44
2017-12-16T22:04:38.766Z,65.70
2017-12-16T22:07:07.141Z,65.88
2017-12-16T22:09:34.713Z,66.01
2017-12-16T22:12:03.435Z,65.76
2017-12-16T22:14:30.992Z,65.95
2017-12-16T22:16:59.733Z,65.88
2017-12-16T22:19:27.306Z,66.01
2017-12-16T22:21:54.953Z,66.99
2017-12-16T22:24:22.515Z,67.02
2017-12-16T22:26:50.148Z,65.91
2017-12-16T22:29:17.685Z,65.88
2017-12-16T22:31:45.317Z,65.93
2017-12-16T22:34:13.982Z,66.07
2017-12-16T22:36:41.531Z,66.19
2017-12-16T22:39:09.090Z,66.07
2017-12-16T22:41:37.154Z,66.16
2017-12-16T22:44:04.742Z,66.44
2017-12-16T22:46:33.210Z,66.83
2017-12-16T22:49:01.071Z,67.25
2017-12-16T22:51:28.588Z,67.79
2017-12-16T22:53:56.151Z,67.92
2017-12-16T22:56:23.925Z,67.97
2017-12-16T22:58:59.113Z,68.02
2017-12-16T23:01:26.654Z,67.83
2017-12-16T23:03:55.132Z,66.98
2017-12-16T23:06:23.145Z,66.45
2017-12-16T23:08:51.406Z,66.64
2017-12-16T23:11:19.040Z,66.43
2017-12-16T23:13:46.608Z,65.79
2017-12-16T23:16:14.451Z,65.68
2017-12-16T23:18:42.228Z,65.46
2017-12-16T23:21:09.870Z,66.27
2017-12-16T23:23:37.767Z,66.26
2017-12-16T23:26:05.325Z,65.67
2017-12-16T23:28:32.916Z,66.14
2017-12-16T23:31:00.542Z,66.06
2017-12-16T23:33:28.303Z,65.76
2017-12-16T23:35:56.183Z,66.11
2017-12-16T23:38:24.367Z,65.93
2017-12-16T23:40:52.821Z,66.21
2017-12-16T23:43:20.422Z,66.71
2017-12-16T23:45:48.176Z,66.51
2017-12-16T23:48:15.701Z,67.23
2017-12-16T23:50:44.082Z,66.35
2017-12-16T23:53:12.152Z,66.36
2017-12-16T23:55:39.785Z,66.26
2017-12-16T23:58:08.089Z,65.87
